Time;durP1;ratioP1;P1;durP2;ratioP2;P2;SDS_P1;SDS_P2;PMS_P1;PMS_P2;Temp;Humidity;BMP_temperature;BMP_pressure;BME280_temperature;BME280_humidity;BME280_pressure;Samples;Min_cycle;Max_cycle;Signal;HPM_P1;HPM_P2
2023/08/05 04:01:45;;;;;;;0.60;0.10;;;17.00;99.90;;;;;;5311700;23;20914;-77
2023/08/05 04:04:13;;;;;;;0.60;0.20;;;16.90;99.90;;;;;;4918039;29;20459;-78
2023/08/05 04:06:41;;;;;;;0.60;0.10;;;16.90;99.90;;;;;;4917476;29;20454;-77
2023/08/05 04:09:09;;;;;;;0.60;0.10;;;16.90;99.90;;;;;;4917465;29;20990;-77
2023/08/05 04:11:37;;;;;;;0.60;0.10;;;16.90;99.90;;;;;;4917538;29;20563;-77
2023/08/05 04:14:06;;;;;;;0.60;0.10;;;16.90;99.90;;;;;;4918314;29;20866;-75
2023/08/05 04:16:34;;;;;;;0.60;0.10;;;;;;;;;;4917607;29;20483;-76
2023/08/05 04:19:04;;;;;;;0.60;0.10;;;16.90;99.90;;;;;;4917750;29;20484;-76
2023/08/05 04:21:39;;;;;;;0.60;0.10;;;16.80;99.90;;;;;;4917634;29;20562;-75
2023/08/05 04:24:09;;;;;;;0.60;0.20;;;16.80;99.90;;;;;;4917596;29;20531;-76
2023/08/05 04:26:36;;;;;;;0.60;0.10;;;16.70;99.90;;;;;;4917056;29;20478;-76
2023/08/05 04:29:04;;;;;;;0.60;0.10;;;16.70;99.90;;;;;;4917261;29;20451;-75
2023/08/05 04:31:33;;;;;;;0.60;0.10;;;16.70;99.90;;;;;;4917502;29;20482;-75
2023/08/05 04:34:01;;;;;;;0.60;0.10;;;16.70;99.90;;;;;;4917155;29;20936;-76
2023/08/05 04:36:30;;;;;;;0.60;0.20;;;16.70;99.90;;;;;;4917251;29;20472;-75
2023/08/05 04:39:01;;;;;;;0.60;0.10;;;16.70;99.90;;;;;;4917161;29;21205;-75
2023/08/05 04:41:30;;;;;;;0.60;0.10;;;16.80;99.90;;;;;;4917217;29;20475;-75
2023/08/05 04:43:57;;;;;;;0.60;0.10;;;16.80;99.90;;;;;;4917101;29;20503;-76
2023/08/05 04:46:25;;;;;;;0.60;0.20;;;16.80;99.90;;;;;;4917180;29;20455;-75
2023/08/05 04:48:53;;;;;;;0.60;0.10;;;16.90;99.90;;;;;;4917203;29;20524;-75
2023/08/05 04:51:21;;;;;;;0.60;0.10;;;16.90;99.90;;;;;;4916918;29;20552;-75
2023/08/05 04:53:50;;;;;;;0.60;0.10;;;16.90;99.90;;;;;;4916887;29;20986;-75
2023/08/05 04:56:24;;;;;;;0.60;0.10;;;17.00;99.90;;;;;;4917013;29;20444;-75
2023/08/05 04:58:52;;;;;;;0.60;0.10;;;;;;;;;;4916905;29;21043;-75
2023/08/05 05:01:20;;;;;;;0.60;0.10;;;17.00;99.90;;;;;;4916786;29;20869;-75
2023/08/05 05:03:49;;;;;;;0.60;0.10;;;17.00;99.90;;;;;;4917137;29;20456;-75
2023/08/05 05:06:17;;;;;;;0.60;0.10;;;17.10;99.90;;;;;;4916845;29;20475;-75
2023/08/05 05:08:45;;;;;;;0.60;0.10;;;17.10;99.90;;;;;;4917342;29;20454;-75
2023/08/05 05:11:14;;;;;;;0.60;0.10;;;17.10;99.90;;;;;;4916850;29;20476;-75
2023/08/05 05:13:43;;;;;;;0.60;0.10;;;17.20;99.90;;;;;;4915992;29;20645;-75
2023/08/05 05:16:11;;;;;;;0.60;0.10;;;;;;;;;;4916157;29;20532;-75
2023/08/05 05:18:39;;;;;;;0.60;0.10;;;17.30;99.90;;;;;;4916368;29;20491;-75
2023/08/05 05:21:07;;;;;;;0.60;0.10;;;17.30;99.90;;;;;;4916430;29;20895;-75
2023/08/05 05:23:36;;;;;;;0.60;0.10;;;;;;;;;;4916735;29;20460;-75
2023/08/05 05:26:04;;;;;;;0.60;0.10;;;;;;;;;;4916367;29;20454;-75
2023/08/05 05:28:33;;;;;;;0.60;0.10;;;17.40;99.90;;;;;;4916464;29;20483;-75
2023/08/05 05:31:03;;;;;;;0.60;0.10;;;17.40;99.90;;;;;;4916353;29;20472;-75
2023/08/05 05:33:31;;;;;;;0.60;0.10;;;17.50;99.90;;;;;;4915965;29;20444;-75
2023/08/05 05:35:59;;;;;;;0.60;0.10;;;17.50;99.90;;;;;;4916264;29;20461;-76
2023/08/05 05:38:26;;;;;;;0.60;0.10;;;17.40;99.90;;;;;;4917063;29;20476;-76
2023/08/05 05:40:55;;;;;;;0.60;0.10;;;;;;;;;;4921819;29;20476;-75
2023/08/05 05:43:23;;;;;;;0.60;0.10;;;17.40;99.90;;;;;;4922812;29;20452;-75
2023/08/05 05:45:54;;;;;;;0.60;0.10;;;17.50;99.90;;;;;;4917892;29;20458;-75
2023/08/05 05:48:21;;;;;;;0.60;0.10;;;17.60;99.90;;;;;;4917010;29;20475;-75
2023/08/05 05:50:52;;;;;;;0.60;0.20;;;17.60;99.90;;;;;;4916440;29;20476;-76
2023/08/05 05:53:21;;;;;;;0.60;0.10;;;17.60;99.90;;;;;;4916116;29;20488;-75
2023/08/05 05:55:52;;;;;;;0.60;0.10;;;17.70;99.90;;;;;;4915681;29;20452;-76
2023/08/05 05:58:20;;;;;;;0.60;0.10;;;17.70;99.90;;;;;;4915841;29;20555;-75
2023/08/05 06:00:54;;;;;;;0.60;0.10;;;17.70;99.90;;;;;;4916080;29;20571;-75
2023/08/05 06:03:23;;;;;;;0.60;0.10;;;17.80;99.90;;;;;;4916087;29;20452;-76
2023/08/05 06:05:51;;;;;;;0.60;0.10;;;17.80;99.90;;;;;;4915588;29;20444;-75
2023/08/05 06:08:19;;;;;;;0.60;0.10;;;17.80;99.90;;;;;;4915820;29;20462;-75
2023/08/05 06:10:46;;;;;;;0.60;0.10;;;17.80;99.90;;;;;;4915931;29;20472;-75
2023/08/05 06:13:14;;;;;;;0.60;0.10;;;17.80;99.90;;;;;;4916067;29;20446;-76
2023/08/05 06:15:42;;;;;;;0.60;0.10;;;17.90;99.90;;;;;;4916064;29;20452;-75
2023/08/05 06:18:10;;;;;;;0.60;0.20;;;18.00;99.90;;;;;;4915950;29;20555;-75
2023/08/05 06:20:39;;;;;;;0.60;0.10;;;18.00;99.90;;;;;;4914767;29;20625;-75
2023/08/05 06:23:07;;;;;;;0.60;0.20;;;18.00;99.90;;;;;;4915048;29;20459;-75
2023/08/05 06:25:35;;;;;;;0.60;0.10;;;18.10;99.90;;;;;;4904328;29;20537;-75
2023/08/05 06:28:03;;;;;;;0.60;0.10;;;18.10;99.90;;;;;;4914850;29;20950;-74
2023/08/05 06:30:31;;;;;;;2.93;2.63;;;18.10;99.90;;;;;;4915644;29;20452;-74
2023/08/05 06:32:59;;;;;;;0.60;0.30;;;18.10;99.90;;;;;;4911083;29;20985;-75
2023/08/05 06:35:27;;;;;;;0.60;0.10;;;18.10;99.90;;;;;;4906789;29;20536;-75
2023/08/05 06:37:56;;;;;;;0.60;0.10;;;18.10;99.90;;;;;;4912765;29;20448;-74
2023/08/05 06:40:24;;;;;;;0.70;0.20;;;18.10;99.90;;;;;;4915349;29;20570;-74
2023/08/05 06:42:52;;;;;;;0.60;0.10;;;18.10;99.90;;;;;;4910097;29;20467;-74
2023/08/05 06:45:20;;;;;;;0.60;0.10;;;18.20;99.90;;;;;;4912759;29;20448;-75
2023/08/05 06:47:48;;;;;;;0.60;0.10;;;18.10;99.90;;;;;;4916250;29;20531;-75
2023/08/05 06:50:16;;;;;;;0.77;0.30;;;18.10;99.90;;;;;;4905019;29;20997;-74
2023/08/05 06:52:44;;;;;;;0.60;0.10;;;18.10;99.90;;;;;;4910477;29;20890;-75
2023/08/05 06:55:17;;;;;;;0.60;0.10;;;18.10;99.90;;;;;;4912876;29;20452;-75
2023/08/05 06:57:48;;;;;;;0.60;0.20;;;18.20;99.90;;;;;;4909398;29;20473;-74
2023/08/05 07:00:16;;;;;;;0.77;0.17;;;18.20;99.90;;;;;;4899267;29;20492;-74
2023/08/05 07:02:44;;;;;;;0.60;0.10;;;18.30;99.90;;;;;;4911806;29;20448;-74
2023/08/05 07:05:12;;;;;;;0.60;0.10;;;18.30;99.90;;;;;;4900509;29;20446;-74
2023/08/05 07:07:40;;;;;;;0.60;0.10;;;18.30;99.90;;;;;;4913679;29;20493;-75
2023/08/05 07:10:11;;;;;;;0.60;0.20;;;18.40;99.90;;;;;;4910568;29;20559;-70
2023/08/05 07:12:40;;;;;;;0.60;0.20;;;18.50;99.90;;;;;;4910984;29;20472;-72
2023/08/05 07:15:09;;;;;;;0.60;0.10;;;18.60;99.90;;;;;;4908539;29;20487;-72
2023/08/05 07:17:38;;;;;;;0.60;0.10;;;18.80;99.90;;;;;;4909300;29;20445;-76
2023/08/05 07:20:07;;;;;;;0.60;0.10;;;;;;;;;;4909777;29;20564;-75
2023/08/05 07:22:35;;;;;;;0.60;0.20;;;19.00;99.90;;;;;;4916764;29;20489;-75
2023/08/05 07:25:04;;;;;;;0.60;0.10;;;19.00;99.90;;;;;;4911939;29;20472;-75
2023/08/05 07:27:32;;;;;;;0.60;0.10;;;19.00;99.90;;;;;;4915212;29;20459;-76
2023/08/05 07:30:01;;;;;;;0.60;0.10;;;19.00;99.90;;;;;;4917028;29;20445;-75
2023/08/05 07:32:31;;;;;;;0.60;0.20;;;19.00;99.90;;;;;;4916553;29;20540;-74
2023/08/05 07:34:59;;;;;;;0.60;0.20;;;18.90;99.90;;;;;;4918206;29;20447;-75
2023/08/05 07:37:28;;;;;;;0.60;0.20;;;18.90;99.90;;;;;;4918361;29;20448;-75
2023/08/05 07:39:57;;;;;;;0.70;0.47;;;18.90;99.90;;;;;;4916911;29;20829;-77
2023/08/05 07:42:27;;;;;;;0.60;0.10;;;18.90;99.90;;;;;;4918234;29;20479;-75
2023/08/05 07:44:55;;;;;;;0.60;0.10;;;18.90;99.90;;;;;;4917835;29;20964;-75
2023/08/05 07:47:24;;;;;;;0.60;0.10;;;18.90;99.90;;;;;;4909688;29;20469;-74
2023/08/05 07:49:52;;;;;;;0.60;0.10;;;18.90;99.90;;;;;;4918197;29;20439;-74
2023/08/05 07:52:20;;;;;;;0.60;0.10;;;18.90;99.90;;;;;;4918291;29;20468;-73
2023/08/05 07:54:48;;;;;;;0.60;0.10;;;18.90;99.90;;;;;;4917724;29;20488;-75
2023/08/05 07:57:16;;;;;;;0.60;0.20;;;18.90;99.90;;;;;;4917839;29;20484;-73
2023/08/05 07:59:44;;;;;;;0.60;0.13;;;19.00;99.90;;;;;;4918155;29;20507;-73
2023/08/05 08:02:11;;;;;;;0.60;0.10;;;19.00;99.90;;;;;;4917133;29;20563;-73
2023/08/05 08:04:41;;;;;;;0.60;0.10;;;19.20;99.90;;;;;;4917712;29;20448;-74
2023/08/05 08:07:09;;;;;;;0.60;0.10;;;19.20;99.90;;;;;;4916080;29;21084;-75
2023/08/05 08:09:37;;;;;;;0.60;0.10;;;19.30;99.90;;;;;;4909643;29;20456;-75
2023/08/05 08:12:05;;;;;;;0.60;0.20;;;19.30;99.90;;;;;;4916031;29;21144;-76
2023/08/05 08:14:33;;;;;;;0.60;0.20;;;19.40;99.90;;;;;;4917763;29;20887;-75
2023/08/05 08:17:01;;;;;;;0.60;0.10;;;19.50;99.90;;;;;;4906915;29;20440;-76
2023/08/05 08:19:29;;;;;;;0.60;0.20;;;19.60;99.90;;;;;;4914680;29;20546;-75
2023/08/05 08:21:58;;;;;;;0.60;0.10;;;19.70;99.90;;;;;;4911253;29;20860;-75
2023/08/05 08:24:26;;;;;;;0.60;0.10;;;19.70;99.90;;;;;;4908359;29;20449;-73
2023/08/05 08:26:54;;;;;;;0.60;0.20;;;19.90;99.90;;;;;;4907848;29;20533;-75
2023/08/05 08:29:21;;;;;;;0.60;0.10;;;19.90;99.90;;;;;;4906027;29;21037;-75
2023/08/05 08:31:50;;;;;;;0.60;0.10;;;;;;;;;;4908661;29;20456;-75
2023/08/05 08:34:18;;;;;;;0.60;0.20;;;;;;;;;;4915219;29;20589;-75
2023/08/05 08:36:46;;;;;;;0.60;0.10;;;20.30;99.90;;;;;;4915963;29;20484;-75
2023/08/05 08:39:16;;;;;;;0.60;0.10;;;20.40;99.90;;;;;;4914445;29;21042;-75
2023/08/05 08:41:46;;;;;;;0.60;0.10;;;20.40;99.90;;;;;;4920165;29;20548;-73
2023/08/05 08:44:16;;;;;;;0.60;0.20;;;20.40;99.90;;;;;;4917478;29;20497;-75
2023/08/05 08:46:45;;;;;;;0.60;0.10;;;20.50;99.90;;;;;;4917321;29;20540;-75
2023/08/05 08:49:16;;;;;;;0.60;0.20;;;20.60;99.90;;;;;;4916754;29;20450;-76
2023/08/05 08:51:47;;;;;;;0.60;0.10;;;20.50;99.90;;;;;;4905675;29;20554;-75
2023/08/05 08:54:19;;;;;;;0.60;0.10;;;20.50;99.90;;;;;;4898935;29;20454;-77
2023/08/05 08:56:47;;;;;;;0.60;0.10;;;20.50;99.90;;;;;;4919293;29;20533;-77
2023/08/05 08:59:15;;;;;;;0.60;0.20;;;20.50;99.90;;;;;;4911588;29;20455;-75
2023/08/05 09:01:46;;;;;;;0.60;0.17;;;20.60;99.90;;;;;;4905258;29;20527;-76
2023/08/05 09:04:15;;;;;;;0.60;0.10;;;20.60;99.90;;;;;;4912258;29;20879;-76
2023/08/05 09:06:46;;;;;;;0.60;0.10;;;20.60;99.90;;;;;;4901784;29;20533;-76
2023/08/05 09:09:13;;;;;;;0.80;0.40;;;20.60;99.90;;;;;;4911275;29;20496;-76
2023/08/05 09:11:43;;;;;;;0.60;0.10;;;20.70;99.90;;;;;;4904360;29;20557;-76
2023/08/05 09:14:14;;;;;;;0.60;0.10;;;20.70;99.90;;;;;;4912330;29;21082;-75
2023/08/05 09:16:57;;;;;;;0.60;0.10;;;20.70;99.90;;;;;;4901122;29;20442;-74
2023/08/05 09:19:26;;;;;;;1.10;1.03;;;20.70;99.90;;;;;;4907249;29;20482;-76
2023/08/05 09:21:54;;;;;;;0.60;0.10;;;20.70;99.90;;;;;;4899153;29;20553;-77
2023/08/05 09:24:23;;;;;;;0.80;0.30;;;20.60;99.90;;;;;;4914781;29;20449;-76
2023/08/05 09:26:56;;;;;;;0.80;0.40;;;20.70;99.90;;;;;;4909260;29;20538;-76
2023/08/05 09:29:25;;;;;;;0.60;0.10;;;20.60;99.90;;;;;;4900731;29;20529;-74
2023/08/05 09:31:57;;;;;;;0.60;0.10;;;20.70;99.90;;;;;;4910481;29;20493;-74
2023/08/05 09:34:33;;;;;;;0.60;0.20;;;20.80;99.90;;;;;;4899859;29;20450;-75
2023/08/05 09:37:01;;;;;;;0.60;0.20;;;20.60;99.90;;;;;;4903162;29;20445;-73
2023/08/05 09:39:44;;;;;;;0.60;0.10;;;20.60;99.90;;;;;;4907980;29;20481;-74
2023/08/05 09:42:23;;;;;;;2.10;2.00;;;20.50;99.90;;;;;;4904093;29;20494;-73
2023/08/05 09:44:54;;;;;;;0.60;0.10;;;20.50;99.90;;;;;;4908783;29;21003;-74
2023/08/05 09:47:25;;;;;;;0.60;0.20;;;20.60;99.90;;;;;;4902214;29;20446;-73
2023/08/05 09:49:55;;;;;;;0.60;0.10;;;20.60;99.90;;;;;;4908805;29;20795;-74
2023/08/05 09:52:23;;;;;;;1.20;0.70;;;20.50;99.80;;;;;;4908886;29;20482;-73
2023/08/05 09:54:58;;;;;;;0.70;0.40;;;20.40;99.90;;;;;;4908665;29;20502;-74
2023/08/05 09:57:28;;;;;;;0.60;0.20;;;20.50;99.90;;;;;;4911708;29;20875;-74
2023/08/05 09:59:58;;;;;;;0.60;0.27;;;20.60;99.80;;;;;;4907177;29;20559;-75
2023/08/05 10:02:29;;;;;;;0.60;0.20;;;20.70;99.10;;;;;;4905283;29;20829;-75
2023/08/05 10:04:57;;;;;;;0.60;0.20;;;;;;;;;;4906816;29;20793;-75
2023/08/05 10:07:27;;;;;;;0.60;0.10;;;;;;;;;;4906714;29;20446;-75
2023/08/05 10:09:55;;;;;;;0.60;0.10;;;21.10;99.90;;;;;;4903670;29;20527;-75
2023/08/05 10:12:28;;;;;;;0.60;0.10;;;21.20;99.90;;;;;;4899579;29;20593;-74
2023/08/05 10:14:58;;;;;;;0.60;0.10;;;21.20;99.90;;;;;;4910846;29;20447;-74
2023/08/05 10:17:27;;;;;;;0.60;0.13;;;21.40;99.90;;;;;;4907871;29;20458;-74
2023/08/05 10:19:56;;;;;;;0.60;0.10;;;21.50;99.90;;;;;;4912403;29;20500;-73
2023/08/05 10:22:26;;;;;;;0.60;0.10;;;21.60;99.90;;;;;;4909153;29;20575;-75
2023/08/05 10:24:56;;;;;;;0.60;0.10;;;21.70;99.90;;;;;;4911428;29;20459;-73
2023/08/05 10:27:36;;;;;;;0.80;0.60;;;21.80;99.90;;;;;;4908299;29;20477;-72
2023/08/05 10:30:09;;;;;;;0.60;0.13;;;22.00;99.90;;;;;;4918258;29;20485;-74
2023/08/05 10:32:50;;;;;;;0.60;0.10;;;22.00;99.90;;;;;;4916300;29;20466;-76
2023/08/05 10:35:28;;;;;;;0.60;0.10;;;22.10;99.90;;;;;;4915522;29;20469;-75
2023/08/05 10:38:14;;;;;;;0.60;0.10;;;22.30;98.90;;;;;;4907203;29;21878;-76
2023/08/05 10:40:49;;;;;;;0.60;0.10;;;22.40;94.00;;;;;;4910996;29;20474;-76
2023/08/05 10:43:30;;;;;;;0.60;0.10;;;22.40;92.20;;;;;;4898174;29;20487;-76
2023/08/05 10:45:58;;;;;;;0.60;0.10;;;22.50;91.90;;;;;;4910657;29;20450;-75
2023/08/05 10:48:31;;;;;;;0.60;0.10;;;22.50;90.20;;;;;;4901250;29;20825;-75
2023/08/05 10:51:03;;;;;;;0.60;0.10;;;22.60;81.50;;;;;;4911490;29;20498;-76
2023/08/05 10:53:33;;;;;;;1.23;0.50;;;22.60;79.00;;;;;;4908677;29;20546;-76
2023/08/05 10:56:01;;;;;;;0.60;0.10;;;22.60;74.50;;;;;;4914744;29;20469;-77
2023/08/05 10:58:31;;;;;;;0.60;0.20;;;22.70;74.70;;;;;;4910874;29;20511;-76
2023/08/05 11:01:01;;;;;;;0.60;0.10;;;22.60;73.70;;;;;;4909163;29;20514;-75
2023/08/05 11:03:33;;;;;;;0.60;0.10;;;22.70;75.40;;;;;;4906876;29;20545;-75
2023/08/05 11:06:02;;;;;;;0.60;0.10;;;22.70;77.10;;;;;;4901971;29;20957;-75
2023/08/05 11:08:30;;;;;;;0.60;0.10;;;;;;;;;;4912539;29;20822;-76
2023/08/05 11:11:01;;;;;;;3.47;3.20;;;22.80;62.90;;;;;;4915188;29;20994;-77
2023/08/05 11:13:38;;;;;;;0.70;0.30;;;22.90;59.50;;;;;;4907202;29;20476;-75
2023/08/05 11:16:08;;;;;;;0.60;0.10;;;22.90;55.80;;;;;;4901464;29;20553;-75
2023/08/05 11:18:36;;;;;;;0.60;0.20;;;23.00;54.80;;;;;;4913385;29;20524;-76
2023/08/05 11:21:06;;;;;;;0.60;0.20;;;23.10;56.80;;;;;;4912884;29;21106;-75
2023/08/05 11:23:37;;;;;;;0.60;0.10;;;23.10;52.30;;;;;;4912363;29;20529;-74
2023/08/05 11:26:05;;;;;;;0.60;0.20;;;23.00;40.20;;;;;;4910926;29;20812;-74
2023/08/05 11:28:35;;;;;;;0.60;0.10;;;22.90;36.50;;;;;;4909883;29;20541;-76
2023/08/05 11:31:04;;;;;;;0.60;0.10;;;23.00;37.50;;;;;;4916021;29;20568;-75
2023/08/05 11:33:32;;;;;;;0.60;0.10;;;23.10;32.00;;;;;;4910902;29;20459;-74
2023/08/05 11:36:00;;;;;;;0.70;0.20;;;23.00;34.00;;;;;;4898801;29;20513;-75
2023/08/05 11:38:28;;;;;;;0.60;0.10;;;23.00;29.90;;;;;;4896613;29;20984;-75
2023/08/05 11:40:57;;;;;;;0.60;0.17;;;23.10;26.70;;;;;;4896948;29;20551;-75
2023/08/05 11:43:25;;;;;;;0.60;0.10;;;;;;;;;;4910780;29;20510;-75
2023/08/05 11:45:58;;;;;;;0.60;0.20;;;23.10;27.40;;;;;;4928982;29;20451;-74
2023/08/05 11:48:27;;;;;;;0.70;0.40;;;22.90;28.30;;;;;;4927819;29;20449;-74
2023/08/05 11:50:58;;;;;;;0.60;0.10;;;23.00;28.40;;;;;;4912793;29;20567;-74
2023/08/05 11:53:26;;;;;;;0.60;0.10;;;23.10;26.20;;;;;;4921384;29;20546;-75
2023/08/05 11:55:54;;;;;;;1.37;0.73;;;;;;;;;;4921874;29;20465;-76
2023/08/05 11:58:23;;;;;;;0.70;0.30;;;;;;;;;;4919826;29;20493;-75
2023/08/05 12:00:53;;;;;;;0.60;0.20;;;23.20;25.10;;;;;;4915328;29;20496;-75
2023/08/05 12:03:22;;;;;;;0.60;0.20;;;23.20;26.90;;;;;;4919243;29;20553;-75
2023/08/05 12:05:50;;;;;;;0.70;0.33;;;23.30;21.80;;;;;;4913281;29;20790;-75
2023/08/05 12:08:36;;;;;;;0.60;0.10;;;23.30;24.00;;;;;;4919851;29;20442;-74
2023/08/05 12:11:05;;;;;;;0.60;0.20;;;;;;;;;;4914817;29;20474;-75
2023/08/05 12:13:34;;;;;;;0.60;0.10;;;;;;;;;;4910311;29;20533;-74
2023/08/05 12:16:02;;;;;;;0.67;0.27;;;23.30;16.60;;;;;;4905157;29;20477;-74
2023/08/05 12:18:31;;;;;;;0.80;0.60;;;23.10;15.00;;;;;;4912415;29;20515;-74
2023/08/05 12:20:59;;;;;;;0.60;0.30;;;23.00;16.10;;;;;;4926501;29;20474;-74
2023/08/05 12:23:27;;;;;;;0.93;0.60;;;22.90;16.80;;;;;;4926194;29;20533;-75
2023/08/05 12:25:58;;;;;;;0.70;0.27;;;22.80;18.60;;;;;;4913887;29;20479;-75
2023/08/05 12:28:26;;;;;;;1.17;0.80;;;;;;;;;;4907232;29;20519;-75
2023/08/05 12:30:54;;;;;;;1.13;0.50;;;22.90;16.80;;;;;;4922284;29;20473;-74
2023/08/05 12:33:22;;;;;;;0.60;0.10;;;22.90;15.00;;;;;;4927062;29;20877;-75
2023/08/05 12:35:51;;;;;;;1.17;0.63;;;22.80;12.60;;;;;;4917798;29;20455;-74
2023/08/05 12:38:19;;;;;;;0.73;0.33;;;22.80;16.60;;;;;;4920001;29;20567;-74
2023/08/05 12:40:47;;;;;;;0.60;0.10;;;22.80;17.50;;;;;;4920531;29;20548;-74
2023/08/05 12:43:15;;;;;;;3.63;2.33;;;22.60;13.30;;;;;;4917364;29;20487;-75
2023/08/05 12:45:43;;;;;;;0.97;0.40;;;22.60;15.60;;;;;;4917341;29;20516;-74
2023/08/05 12:48:12;;;;;;;0.60;0.20;;;;;;;;;;4917614;29;20459;-75
2023/08/05 12:50:40;;;;;;;0.60;0.10;;;;;;;;;;4917659;29;20584;-75
2023/08/05 12:53:09;;;;;;;0.70;0.40;;;22.50;8.00;;;;;;4917700;29;20450;-74
2023/08/05 12:55:37;;;;;;;4.80;4.37;;;22.40;7.50;;;;;;4917549;29;21129;-75
2023/08/05 12:58:05;;;;;;;0.60;0.10;;;;;;;;;;4918188;29;20518;-74
2023/08/05 13:00:34;;;;;;;0.70;0.50;;;22.40;1.90;;;;;;4921532;29;20566;-75
2023/08/05 13:03:02;;;;;;;0.60;0.10;;;;;;;;;;4911870;29;20548;-75
2023/08/05 13:05:30;;;;;;;0.60;0.10;;;22.50;8.90;;;;;;4920331;29;20913;-75
2023/08/05 13:07:58;;;;;;;0.60;0.10;;;22.70;11.50;;;;;;4919011;29;20519;-75
2023/08/05 13:10:27;;;;;;;1.43;0.20;;;22.80;13.40;;;;;;4919822;29;20543;-76
2023/08/05 13:12:55;;;;;;;0.70;0.40;;;;;;;;;;4917551;29;20482;-75
2023/08/05 13:15:23;;;;;;;1.00;0.90;;;23.20;6.80;;;;;;4909125;29;20488;-75
2023/08/05 13:17:51;;;;;;;0.70;0.57;;;23.10;11.30;;;;;;4916703;29;20546;-71
2023/08/05 13:20:19;;;;;;;0.60;0.17;;;22.90;8.30;;;;;;4909835;29;20463;-72
2023/08/05 13:22:47;;;;;;;0.70;0.33;;;22.80;8.10;;;;;;4913347;29;21116;-73
2023/08/05 13:25:15;;;;;;;0.60;0.10;;;;;;;;;;4907447;29;20546;-73
2023/08/05 13:27:44;;;;;;;0.80;0.57;;;22.80;14.70;;;;;;4912237;29;20752;-73
2023/08/05 13:30:13;;;;;;;0.60;0.10;;;;;;;;;;4911203;29;20541;-73
2023/08/05 13:32:41;;;;;;;0.80;0.50;;;23.00;20.00;;;;;;4912042;29;20522;-72
2023/08/05 13:35:09;;;;;;;0.60;0.10;;;23.10;19.90;;;;;;4911881;29;20458;-73
2023/08/05 13:37:37;;;;;;;0.60;0.10;;;23.10;13.90;;;;;;4911172;29;20448;-73
2023/08/05 13:40:06;;;;;;;0.60;0.10;;;23.20;16.80;;;;;;4903298;29;20484;-71
2023/08/05 13:42:34;;;;;;;0.60;0.10;;;;;;;;;;4900736;29;20480;-71
2023/08/05 13:45:04;;;;;;;0.60;0.10;;;23.40;19.10;;;;;;4910515;29;20910;-72
2023/08/05 13:47:32;;;;;;;0.60;0.10;;;23.60;21.30;;;;;;4909578;29;20503;-72
2023/08/05 13:50:00;;;;;;;0.60;0.10;;;23.90;22.90;;;;;;4916520;29;20569;-73
2023/08/05 13:52:28;;;;;;;0.87;0.40;;;23.90;20.50;;;;;;4916630;29;21008;-74
2023/08/05 13:54:56;;;;;;;0.80;0.40;;;24.20;19.00;;;;;;4916052;29;20494;-72
2023/08/05 13:57:24;;;;;;;0.60;0.20;;;24.20;18.80;;;;;;4913124;29;20535;-74
2023/08/05 13:59:53;;;;;;;0.70;0.20;;;24.20;27.40;;;;;;4906270;29;20507;-71
2023/08/05 14:02:22;;;;;;;0.70;0.10;;;24.20;14.70;;;;;;4912082;29;20491;-73
2023/08/05 14:04:50;;;;;;;0.70;0.23;;;;;;;;;;4909285;29;21015;-73
2023/08/05 14:07:18;;;;;;;0.70;0.20;;;24.30;4.70;;;;;;4916900;29;20452;-74
2023/08/05 14:09:46;;;;;;;0.70;0.10;;;;;;;;;;4917051;29;20459;-74
2023/08/05 14:12:14;;;;;;;0.70;0.10;;;;;;;;;;4916678;29;20503;-73
2023/08/05 14:14:42;;;;;;;0.60;0.10;;;24.70;17.00;;;;;;4916239;29;20455;-74
2023/08/05 14:17:11;;;;;;;0.70;0.30;;;;;;;;;;4919464;29;20467;-78
2023/08/05 14:19:40;;;;;;;0.70;0.20;;;24.40;1.00;;;;;;4920680;29;20456;-74
2023/08/05 14:22:08;;;;;;;0.70;0.20;;;24.60;1.00;;;;;;4923034;29;20523;-77
2023/08/05 14:24:36;;;;;;;1.23;1.13;;;24.40;1.00;;;;;;4906258;29;20491;-74
2023/08/05 14:27:04;;;;;;;0.70;0.20;;;24.10;1.00;;;;;;4919042;29;20484;-76
2023/08/05 14:29:32;;;;;;;0.70;0.10;;;23.70;2.50;;;;;;4913457;29;20475;-76
2023/08/05 14:32:00;;;;;;;0.70;0.20;;;;;;;;;;4903899;29;20853;-75
2023/08/05 14:34:29;;;;;;;0.60;0.17;;;23.40;5.90;;;;;;4916289;29;20814;-75
2023/08/05 14:36:59;;;;;;;0.60;0.10;;;;;;;;;;4908975;29;20526;-74
2023/08/05 14:39:26;;;;;;;0.60;0.10;;;23.40;10.80;;;;;;4910313;29;20478;-76
2023/08/05 14:41:54;;;;;;;0.60;0.20;;;23.40;13.40;;;;;;4907586;29;20821;-74
2023/08/05 14:44:23;;;;;;;0.60;0.10;;;;;;;;;;4907411;29;20519;-75
2023/08/05 14:46:52;;;;;;;3.03;2.83;;;23.40;15.70;;;;;;4910053;29;20543;-74
2023/08/05 14:49:20;;;;;;;0.60;0.20;;;;;;;;;;4913677;29;20468;-75
2023/08/05 14:51:48;;;;;;;0.60;0.20;;;23.30;18.60;;;;;;4908673;29;21084;-75
2023/08/05 14:54:18;;;;;;;0.60;0.20;;;23.20;19.80;;;;;;4911218;29;20474;-77
2023/08/05 14:56:46;;;;;;;0.60;0.10;;;;;;;;;;4909301;29;20455;-75
2023/08/05 14:59:14;;;;;;;0.60;0.20;;;23.30;21.20;;;;;;4909828;29;20454;-76
2023/08/05 15:01:42;;;;;;;0.60;0.10;;;;;;;;;;4909151;29;20472;-77
2023/08/05 15:04:11;;;;;;;0.60;0.10;;;;;;;;;;4910623;29;20484;-78
2023/08/05 15:06:39;;;;;;;0.60;0.20;;;23.40;19.80;;;;;;4907514;29;20449;-76
2023/08/05 15:09:07;;;;;;;0.60;0.10;;;;;;;;;;4915589;29;20450;-78
2023/08/05 15:11:36;;;;;;;0.60;0.17;;;23.30;20.30;;;;;;4913591;29;20621;-74
2023/08/05 15:14:04;;;;;;;0.60;0.10;;;23.40;20.60;;;;;;4915371;29;20483;-74
2023/08/05 15:16:33;;;;;;;0.60;0.20;;;;;;;;;;4899583;29;20438;-75
2023/08/05 15:19:01;;;;;;;0.60;0.10;;;;;;;;;;4907528;29;20880;-74
2023/08/05 15:21:30;;;;;;;0.60;0.10;;;;;;;;;;4906207;29;20492;-74
2023/08/05 15:23:58;;;;;;;0.60;0.10;;;;;;;;;;4904914;29;20563;-75
2023/08/05 15:26:27;;;;;;;0.60;0.10;;;;;;;;;;4910818;29;20569;-76
2023/08/05 15:28:56;;;;;;;0.60;0.10;;;23.60;17.90;;;;;;4901060;29;20456;-76
2023/08/05 15:31:25;;;;;;;0.60;0.10;;;;;;;;;;4912269;29;21658;-76
2023/08/05 15:33:53;;;;;;;0.60;0.10;;;;;;;;;;4912444;29;20452;-76
2023/08/05 15:36:21;;;;;;;0.60;0.10;;;23.40;18.80;;;;;;4915741;29;20474;-77
2023/08/05 15:38:49;;;;;;;0.60;0.10;;;;;;;;;;4905476;29;20484;-75
2023/08/05 15:41:17;;;;;;;0.60;0.10;;;23.60;22.20;;;;;;4913728;29;20512;-75
2023/08/05 15:43:45;;;;;;;0.60;0.10;;;23.70;21.70;;;;;;4917223;29;20838;-75
2023/08/05 15:46:16;;;;;;;0.60;0.20;;;23.70;20.00;;;;;;4916583;29;20447;-77
2023/08/05 15:48:44;;;;;;;0.80;0.63;;;23.70;20.10;;;;;;4913820;29;20451;-76
2023/08/05 15:51:12;;;;;;;0.60;0.10;;;;;;;;;;4902468;29;20547;-75
2023/08/05 15:53:40;;;;;;;0.60;0.20;;;;;;;;;;4917565;29;20543;-75
2023/08/05 15:56:09;;;;;;;0.60;0.20;;;23.50;19.80;;;;;;4918254;29;20968;-76
2023/08/05 15:58:38;;;;;;;0.60;0.20;;;;;;;;;;4917438;29;20458;-76
2023/08/05 16:01:07;;;;;;;0.60;0.10;;;23.30;20.30;;;;;;4916546;29;20961;-74
2023/08/05 16:03:36;;;;;;;0.60;0.10;;;;;;;;;;4907708;29;20458;-76
2023/08/05 16:06:05;;;;;;;0.60;0.10;;;23.10;17.80;;;;;;4899419;29;20955;-74
2023/08/05 16:08:34;;;;;;;0.60;0.10;;;23.00;16.80;;;;;;4899499;29;20546;-75
2023/08/05 16:11:02;;;;;;;0.60;0.10;;;;;;;;;;4900619;29;20511;-77
2023/08/05 16:13:30;;;;;;;1.37;0.93;;;22.80;18.30;;;;;;4912812;29;20448;-76
2023/08/05 16:16:08;;;;;;;0.60;0.10;;;22.70;19.40;;;;;;4898505;29;20853;-76
2023/08/05 16:18:39;;;;;;;0.60;0.10;;;22.70;20.40;;;;;;4887694;29;20446;-76
2023/08/05 16:21:11;;;;;;;0.60;0.10;;;22.60;20.90;;;;;;4892522;29;20567;-77
2023/08/05 16:23:40;;;;;;;0.60;0.10;;;22.60;22.30;;;;;;4880956;29;20935;-77
2023/08/05 16:26:09;;;;;;;0.60;0.10;;;22.60;21.60;;;;;;4883232;29;20522;-77
2023/08/05 16:28:37;;;;;;;0.60;0.10;;;;;;;;;;4880162;29;20990;-76
2023/08/05 16:31:06;;;;;;;0.60;0.10;;;22.50;22.40;;;;;;4881464;29;20487;-78
2023/08/05 16:33:34;;;;;;;0.70;0.40;;;22.40;24.20;;;;;;4879903;29;20881;-76
2023/08/05 16:36:05;;;;;;;0.60;0.20;;;22.30;31.90;;;;;;4880231;29;20454;-76
2023/08/05 16:38:33;;;;;;;0.60;0.20;;;22.20;43.80;;;;;;4879630;29;20447;-76
2023/08/05 16:41:02;;;;;;;0.60;0.10;;;21.80;57.40;;;;;;4880309;29;20482;-75
2023/08/05 16:43:30;;;;;;;0.60;0.10;;;21.70;68.20;;;;;;4886430;29;20506;-76
2023/08/05 16:45:58;;;;;;;0.60;0.10;;;21.50;82.00;;;;;;4898509;29;20528;-75
2023/08/05 16:48:26;;;;;;;0.60;0.10;;;21.30;92.20;;;;;;4898057;29;20458;-76
2023/08/05 16:50:54;;;;;;;1.03;0.93;;;21.10;99.90;;;;;;4898322;29;20880;-75
2023/08/05 16:53:23;;;;;;;0.60;0.10;;;20.90;94.80;;;;;;4898369;29;20486;-75
2023/08/05 16:55:51;;;;;;;0.60;0.10;;;20.70;94.70;;;;;;4897677;29;20937;-75
2023/08/05 16:58:19;;;;;;;0.60;0.17;;;20.60;99.90;;;;;;4897985;29;20455;-75
2023/08/05 17:00:47;;;;;;;0.60;0.10;;;;;;;;;;4897984;29;20559;-75
2023/08/05 17:03:15;;;;;;;0.60;0.10;;;20.60;99.90;;;;;;4897946;29;20496;-75
2023/08/05 17:05:43;;;;;;;0.60;0.10;;;20.60;99.90;;;;;;4898101;29;20550;-76
2023/08/05 17:08:11;;;;;;;0.60;0.10;;;;;;;;;;4898724;29;20490;-76
2023/08/05 17:10:41;;;;;;;0.60;0.10;;;20.60;99.90;;;;;;4897757;29;20466;-75
2023/08/05 17:13:09;;;;;;;0.60;0.10;;;;;;;;;;4898293;29;20457;-75
2023/08/05 17:15:37;;;;;;;0.60;0.10;;;20.60;99.90;;;;;;4964046;23;20497;-76